Latest Weather Observations for Redesdale

IDV60801

Issued at 3:05 am EST Saturday 26 July 2014 (issued every 30 minutes, with the page automatically refreshed every 10 minutes)

About weather observations | Map of weather stations | Latest weather observations for VIC | Other Formats
Station Details ID: 088051 Name: REDESDALE Lat: -37.02 Lon: 144.52 Height: 290.0 m
Data from the previous 72 hours. | See also: Recent months at Redesdale
Date/Time
EST
Temp
°C
App
Temp
°C
Dew
Point
Rel
Hum
%
Delta-T
°C
Wind Press
QNH
hPa
Press
MSL
hPa
Rain
since 9 am
mm
Dir
 
Spd
km/h
Gust
km/h
Spd
kts
Gust
kts
26/03:00am 8.5 7.8 8.4 99 0.0 N 2 4 1 2 - - 5.4
26/02:30am 8.5 7.8 8.4 99 0.0 N 2 4 1 2 - - 5.4
26/02:00am 8.5 8.1 8.4 99 0.0 CALM 0 4 0 2 - - 5.4
26/01:30am 8.7 8.0 8.6 99 0.0 NNE 2 4 1 2 - - 5.4
26/01:00am 8.7 8.0 8.6 99 0.0 NNE 2 4 1 2 - - 5.4
26/12:30am 8.9 8.3 8.8 99 0.0 NNE 2 4 1 2 - - 5.4
26/12:00am 8.9 8.3 8.8 99 0.0 NNE 2 4 1 2 - - 5.4
 
Date/Time
EST
Temp
°C
App
Temp
°C
Dew
Point
Rel
Hum
%
Delta-T
°C
Wind Press
QNH
hPa
Press
MSL
hPa
Rain
since 9 am
mm
Dir
 
Spd
km/h
Gust
km/h
Spd
kts
Gust
kts
25/11:30pm 9.0 8.0 8.9 99 0.0 N 4 6 2 3 - - 5.4
25/11:00pm 9.2 8.3 9.1 99 0.0 N 4 6 2 3 - - 5.4
25/10:30pm 9.5 8.6 9.4 99 0.1 NNE 4 6 2 3 - - 5.4
25/10:00pm 9.3 8.0 9.2 99 0.1 N 6 7 3 4 - - 5.4
25/09:30pm 9.1 7.6 9.0 99 0.0 NNW 7 9 4 5 - - 5.4
25/09:00pm 9.9 8.8 9.8 99 0.1 N 6 9 3 5 - - 5.2
25/08:30pm 10.2 10.2 9.9 98 0.2 CALM 0 2 0 1 - - 5.2
25/08:00pm 10.2 9.8 9.9 98 0.2 N 2 4 1 2 - - 5.2
25/07:30pm 10.4 9.7 10.1 98 0.2 N 4 7 2 4 - - 5.2
25/07:00pm 10.6 10.0 10.3 98 0.2 WNW 4 7 2 4 - - 5.2
25/06:30pm 10.9 9.9 10.4 97 0.3 NW 6 7 3 4 - - 2.4
25/06:00pm 10.9 9.8 10.6 98 0.2 N 7 9 4 5 - - 1.6
25/05:30pm 11.0 10.1 10.7 98 0.2 N 6 7 3 4 - - 1.4
25/05:00pm 11.3 10.4 10.8 97 0.3 N 6 7 3 4 - - 1.4
25/04:30pm 11.4 10.0 10.8 96 0.3 N 9 13 5 7 - - 1.4
25/04:00pm 11.6 9.7 10.5 93 0.6 N 11 17 6 9 - - 1.2
25/03:30pm 12.0 10.2 10.9 93 0.6 N 11 19 6 10 - - 1.2
25/03:00pm 11.9 10.1 10.8 93 0.6 N 11 19 6 10 - - 1.0
25/02:30pm 11.2 9.6 10.3 94 0.5 NNW 9 13 5 7 - - 0.8
25/02:00pm 11.9 9.4 9.8 87 1.1 N 13 20 7 11 - - 0.0
25/01:30pm 11.7 9.3 9.9 89 0.9 N 13 20 7 11 - - 0.0
25/01:00pm 11.3 9.2 9.7 90 0.8 N 11 19 6 10 - - 0.0
25/12:30pm 11.1 9.7 9.7 91 0.7 N 7 11 4 6 - - 0.0
25/12:00pm 10.7 8.9 9.3 91 0.7 N 9 15 5 8 - - 0.0
25/11:30am 10.3 8.5 9.5 95 0.4 N 9 13 5 7 - - 0.0
25/11:00am 9.9 7.2 9.1 95 0.4 N 13 19 7 10 - - 0.0
25/10:30am 9.4 6.6 8.6 95 0.4 N 13 19 7 10 - - 0.0
25/10:00am 9.2 6.8 8.6 96 0.3 N 11 17 6 9 - - 0.0
25/09:30am 8.9 6.5 8.6 98 0.1 N 11 19 6 10 - - 0.0
25/09:00am 8.7 6.2 8.4 98 0.1 N 11 19 6 10 - - 2.2
25/08:30am 8.6 6.6 8.5 99 0.0 N 9 13 5 7 - - 2.0
25/08:00am 8.5 6.8 8.4 99 0.0 N 7 13 4 7 - - 2.0
25/07:30am 8.3 6.6 8.2 99 0.0 N 7 13 4 7 - - 2.0
25/07:00am 8.4 6.3 8.1 98 0.1 NNE 9 15 5 8 - - 2.0
25/06:30am 8.4 6.3 8.1 98 0.1 NNE 9 11 5 6 - - 2.0
25/06:00am 8.6 7.1 8.3 98 0.1 N 6 11 3 6 - - 2.0
25/05:30am 9.0 6.6 8.7 98 0.1 N 11 19 6 10 - - 2.0
25/05:00am 9.0 6.7 8.9 99 0.0 N 11 15 6 8 - - 2.0
25/04:30am 8.7 7.1 8.6 99 0.0 NNE 7 11 4 6 - - 2.0
25/04:00am 8.7 7.2 8.6 99 0.0 NNE 6 7 3 4 - - 2.0
25/03:30am 8.7 7.2 8.4 98 0.1 N 6 11 3 6 - - 2.0
25/03:00am 8.6 7.0 8.2 97 0.2 NNE 6 9 3 5 - - 2.0
25/02:30am 8.7 6.9 7.9 95 0.4 NE 7 9 4 5 - - 1.6
25/02:00am 8.7 7.1 7.8 94 0.4 NE 6 9 3 5 - - 1.6
25/01:30am 8.8 7.2 7.9 94 0.4 ENE 6 7 3 4 - - 1.6
25/01:00am 8.8 7.2 8.0 95 0.4 ENE 6 9 3 5 - - 1.6
25/12:30am 8.6 7.3 7.7 94 0.4 NE 4 7 2 4 - - 1.6
25/12:00am 8.7 7.4 7.6 93 0.5 NNE 4 7 2 4 - - 1.6
 
Date/Time
EST
Temp
°C
App
Temp
°C
Dew
Point
Rel
Hum
%
Delta-T
°C
Wind Press
QNH
hPa
Press
MSL
hPa
Rain
since 9 am
mm
Dir
 
Spd
km/h
Gust
km/h
Spd
kts
Gust
kts
24/11:30pm 9.2 7.0 8.0 92 0.6 N 9 13 5 7 - - 1.6
24/11:00pm 9.1 7.2 7.7 91 0.7 NNE 7 13 4 7 - - 1.6
24/10:30pm 10.1 7.9 7.9 86 1.1 NNE 9 15 5 8 - - 1.4
24/10:00pm 10.3 8.1 7.7 84 1.3 NNE 9 15 5 8 - - 1.4
24/09:30pm 10.3 8.0 7.5 83 1.4 NE 9 17 5 9 - - 1.4
24/09:00pm 10.1 8.7 7.3 83 1.4 NNE 4 11 2 6 - - 1.4
24/08:30pm 10.0 8.0 7.1 82 1.4 NE 7 13 4 7 - - 1.4
24/08:00pm 10.0 7.2 6.9 81 1.5 NE 11 17 6 9 - - 1.4
24/07:30pm 9.9 7.1 7.0 82 1.4 NE 11 19 6 10 - - 1.4
24/07:00pm 9.7 6.9 7.0 83 1.3 NE 11 24 6 13 - - 1.4
24/06:30pm 9.9 6.8 7.2 83 1.3 ENE 13 22 7 12 - - 1.4
24/06:00pm 9.7 6.9 7.1 84 1.2 ENE 11 17 6 9 - - 1.4
24/05:30pm 9.9 7.9 7.3 84 1.3 ENE 7 13 4 7 - - 1.4
24/05:00pm 10.0 7.7 7.6 85 1.2 ENE 9 13 5 7 - - 1.4
24/04:30pm 10.2 7.2 7.8 85 1.2 ENE 13 22 7 12 - - 1.4
24/04:00pm 10.2 6.8 7.6 84 1.3 ENE 15 24 8 13 - - 1.4
24/03:30pm 10.5 6.9 8.3 86 1.1 ENE 17 24 9 13 - - 1.4
24/03:00pm 10.7 7.9 8.5 86 1.1 ENE 13 20 7 11 - - 1.4
24/02:30pm 10.1 6.8 8.2 88 0.9 ENE 15 22 8 12 - - 1.4
24/02:00pm 9.7 7.3 8.5 92 0.6 ENE 11 17 6 9 - - 1.4
24/01:30pm 9.8 6.4 7.7 87 1.0 ENE 15 22 8 12 - - 1.2
24/01:00pm 9.5 6.8 7.4 87 1.0 ENE 11 20 6 11 - - 1.2
24/12:30pm 9.1 6.0 7.4 89 0.8 ENE 13 20 7 11 - - 1.2
24/12:00pm 9.0 5.6 7.5 90 0.7 NE 15 22 8 12 - - 1.2
24/11:30am 9.1 6.1 7.9 92 0.6 ENE 13 19 7 10 - - 1.2
24/11:00am 8.3 5.6 7.2 93 0.5 ENE 11 19 6 10 - - 1.2
24/10:30am 8.1 5.8 7.5 96 0.3 ENE 9 15 5 8 - - 1.2
24/10:00am 7.7 5.7 7.3 97 0.2 ENE 7 11 4 6 - - 1.2
24/09:30am 7.5 4.7 7.1 97 0.2 NE 11 15 6 8 - - 0.6
24/09:00am 7.3 5.3 6.9 97 0.2 ENE 7 11 4 6 - - 2.2
24/08:30am 7.2 5.1 6.8 97 0.2 ENE 7 11 4 6 - - 2.0
24/08:00am 7.0 5.4 6.4 96 0.3 ENE 4 7 2 4 - - 1.6
24/07:30am 6.9 4.9 6.3 96 0.3 ENE 6 7 3 4 - - 1.0
24/07:00am 6.9 4.7 6.2 95 0.3 E 7 9 4 5 - - 0.8
24/06:30am 7.1 5.1 6.2 94 0.4 ENE 6 9 3 5 - - 0.6
24/06:00am 7.2 5.2 6.1 93 0.5 ENE 6 9 3 5 - - 0.4
24/05:30am 7.0 4.8 6.1 94 0.4 ENE 7 9 4 5 - - 0.4
24/05:00am 7.2 5.0 6.3 94 0.4 NE 7 13 4 7 - - 0.2
24/04:30am 7.1 5.0 6.5 96 0.3 E 7 11 4 6 - - 0.2
24/04:00am 6.9 4.5 6.8 99 0.0 E 9 11 5 6 - - 0.2
24/03:30am 5.4 3.2 5.3 99 0.0 SE 6 9 3 5 - - 0.2
24/03:00am 5.3 3.5 5.2 99 0.0 ESE 4 6 2 3 - - 0.2
24/02:30am 4.3 2.6 4.2 99 0.0 E 2 6 1 3 - - 0.2
24/02:00am 5.3 3.1 5.2 99 0.0 E 6 7 3 4 - - 0.2
24/01:30am 5.2 3.3 5.1 99 0.0 E 4 7 2 4 - - 0.2
24/01:00am 5.2 3.7 5.1 99 0.0 E 2 4 1 2 - - 0.2
24/12:30am 4.6 2.2 4.5 99 0.0 ESE 6 9 3 5 - - 0.2
24/12:00am 3.6 1.1 3.5 99 0.0 ESE 6 7 3 4 - - 0.2
 
Date/Time
EST
Temp
°C
App
Temp
°C
Dew
Point
Rel
Hum
%
Delta-T
°C
Wind Press
QNH
hPa
Press
MSL
hPa
Rain
since 9 am
mm
Dir
 
Spd
km/h
Gust
km/h
Spd
kts
Gust
kts
23/11:30pm 3.7 1.0 3.6 99 0.0 ESE 7 9 4 5 - - 0.2
23/11:00pm 2.4 0.0 2.1 98 0.1 SE 4 6 2 3 - - 0.2
23/10:30pm 2.5 0.1 2.1 97 0.2 SE 4 6 2 3 - - 0.2
23/10:00pm 3.8 1.0 3.2 96 0.2 ESE 7 9 4 5 - - 0.2
23/09:30pm 3.9 1.3 3.3 96 0.2 ESE 6 7 3 4 - - 0.2
23/09:00pm 3.7 1.5 3.1 96 0.2 ESE 4 6 2 3 - - 0.2
23/08:30pm 3.6 1.0 3.0 96 0.2 ESE 6 6 3 3 - - 0.2
23/08:00pm 3.4 1.1 2.5 94 0.4 ESE 4 6 2 3 - - 0.2
23/07:30pm 3.8 1.5 2.8 93 0.4 ENE 4 6 2 3 - - 0.2
23/07:00pm 3.9 1.9 2.3 89 0.6 NE 2 4 1 2 - - 0.2
23/06:30pm 5.2 3.3 3.1 86 0.9 NNE 2 4 1 2 - - 0.2
23/06:00pm 5.8 3.9 3.0 82 1.2 NNE 2 4 1 2 - - 0.2
23/05:30pm 7.1 4.9 3.2 76 1.7 N 4 7 2 4 - - 0.2
23/05:00pm 8.7 6.2 3.5 70 2.3 N 6 7 3 4 - - 0.2
23/04:30pm 10.0 7.8 5.2 72 2.2 NE 6 9 3 5 - - 0.2
23/04:00pm 9.9 7.1 5.1 72 2.2 NNE 9 13 5 7 - - 0.2
23/03:30pm 9.3 6.4 4.7 73 2.1 N 9 13 5 7 - - 0.2
23/03:00pm 9.6 6.8 5.2 74 2.0 N 9 17 5 9 - - 0.2
23/02:30pm 9.8 7.4 5.4 74 2.0 ENE 7 13 4 7 - - 0.2
23/02:00pm 9.7 7.0 5.5 75 1.9 NE 9 13 5 7 - - 0.2
23/01:30pm 9.8 7.5 5.6 75 2.0 ENE 7 13 4 7 - - 0.2
23/01:00pm 9.4 6.5 4.6 72 2.2 NE 9 13 5 7 - - 0.2
23/12:30pm 9.9 7.6 5.9 76 1.9 ENE 7 11 4 6 - - 0.2
23/12:00pm 8.8 6.4 5.4 79 1.6 ENE 7 11 4 6 - - 0.2
23/11:30am 8.4 6.2 5.3 81 1.4 NE 6 7 3 4 - - 0.2
23/11:00am 8.0 5.8 5.5 84 1.1 N 6 9 3 5 - - 0.2
23/10:30am 6.6 5.1 4.8 88 0.8 SE 2 4 1 2 - - 0.2
23/10:00am 6.7 5.3 5.3 91 0.6 S 2 4 1 2 - - 0.2
23/09:30am 4.6 2.2 4.3 98 0.1 S 6 7 3 4 - - 0.2
23/09:00am 1.8 -1.1 1.5 98 0.1 S 6 7 3 4 - - 0.0
23/08:30am 0.4 -2.7 0.3 99 0.0 S 6 7 3 4 - - 0.0
23/08:00am -0.8 -4.1 -0.9 99 0.0 SSW 6 7 3 4 - - 0.0
23/07:30am -1.3 -4.6 -1.6 98 0.0 S 6 7 3 4 - - 0.0
23/07:00am -1.2 -4.2 -1.5 98 0.0 SSW 4 6 2 3 - - 0.0
23/06:30am -1.3 -4.6 -1.6 98 0.0 SSW 6 7 3 4 - - 0.0
23/06:00am -1.1 -5.0 -1.4 98 0.1 SSW 9 11 5 6 - - 0.0
23/05:30am 0.1 -4.0 0.0 99 0.0 S 11 13 6 7 - - 0.0
23/05:00am -0.3 -4.4 -0.4 99 0.0 S 11 13 6 7 - - 0.0
23/04:30am -0.3 -4.4 -0.4 99 0.0 S 11 13 6 7 - - 0.0
23/04:00am -0.4 -4.2 -0.5 99 0.0 SSW 9 11 5 6 - - 0.0
23/03:30am -0.3 -4.1 -0.6 98 0.1 SSW 9 11 5 6 - - 0.0

Other Formats:

Comma delimited format used in spreadsheet applications
http://www.bom.gov.au/fwo/IDV60801/IDV60801.94859.axf

JavaScript Object Notation format (JSON) in row-major order
http://www.bom.gov.au/fwo/IDV60801/IDV60801.94859.json